Northwest Arkansas Regional Airport Fayetteville,Springdale, US
ICAO: KXNA
IATA: XNA
Category: Medium
Scheduled Services: No

Elevation: 1287 ft
TransAlt. 18000 ft.

Airport Communications:
RAZORBACK APP/DEP:121
ASOS:119.425
CTAF:127.1
GND:121.9
JONESBORO RDO:122.55
TWR:127.1
UNICOM:122.95

KXNA Zoom In..

Runways:

(A) RW 16 length 8800 ft width 150 ft
ILS 110.55 / hdg 156

(B) RW 17 length 8800 ft width 150 ft
ILS 111.75 / hdg 156

(C) RW 34 length 8800 ft width 150 ft
ILS 110.55 / hdg 336

(D) RW 35 length 8800 ft width 150 ft
ILS 111.75 / hdg 336

Location; KXNA
Day. 21 / Time. 14.53 Zulu
* Altimeter: 30.11
* Temperature: 21° c. 69.8°f.
* Wind from: VRB° Speed 03 kn.
Dewpoint: 18° c.
Visibility: 10 Statute Miles.
Clouds: Scattered 800 ft.
Clouds: Overcast 1300 ft.

KXNA 211453Z VRB03KT 10SM SCT008 OVC013 21/18 A3011 RMK AO2 SLP184 T02060183 51011


Wind From VRB°
Speed 03 kn.

 
 
jpsmedia.com for Web Design SOUNDCLOUD worldairports.se 2018   terms of use